createdAt,value
2017-10-12T00:00:38.360Z,3.40
2017-10-12T00:03:05.133Z,3.30
2017-10-12T00:05:31.701Z,3.30
2017-10-12T00:07:58.281Z,3.83
2017-10-12T00:10:24.880Z,3.40
2017-10-12T00:12:51.466Z,3.30
2017-10-12T00:15:18.018Z,3.77
2017-10-12T00:17:44.602Z,3.93
2017-10-12T00:20:11.185Z,3.50
2017-10-12T00:22:37.761Z,3.63
2017-10-12T00:25:04.619Z,3.70
2017-10-12T00:27:31.241Z,3.23
2017-10-12T00:29:58.187Z,3.50
2017-10-12T00:32:24.766Z,3.00
2017-10-12T00:34:51.337Z,3.40
2017-10-12T00:37:17.909Z,3.60
2017-10-12T00:39:44.530Z,3.50
2017-10-12T00:42:11.105Z,3.60
2017-10-12T00:44:37.685Z,3.50
2017-10-12T00:47:04.297Z,3.70
2017-10-12T00:49:30.884Z,3.40
2017-10-12T00:51:57.461Z,3.47
2017-10-12T00:54:24.062Z,3.50
2017-10-12T00:56:50.650Z,3.30
2017-10-12T00:59:17.234Z,3.10
2017-10-12T01:01:43.823Z,3.80
2017-10-12T01:04:10.404Z,3.37
2017-10-12T01:06:36.982Z,3.50
2017-10-12T01:09:03.584Z,3.43
2017-10-12T01:11:30.162Z,3.80
2017-10-12T01:13:56.917Z,3.83
2017-10-12T01:16:23.977Z,3.80
2017-10-12T01:18:50.553Z,3.50
2017-10-12T01:21:17.235Z,3.67
2017-10-12T01:23:44.102Z,3.27
2017-10-12T01:26:10.681Z,3.90
2017-10-12T01:28:37.257Z,3.83
2017-10-12T01:31:04.138Z,3.80
2017-10-12T01:33:30.713Z,3.73
2017-10-12T01:35:57.292Z,3.57
2017-10-12T01:38:23.993Z,3.93
2017-10-12T01:40:50.550Z,3.70
2017-10-12T01:43:17.129Z,3.60
2017-10-12T01:45:43.733Z,4.10
2017-10-12T01:48:10.309Z,3.83
2017-10-12T01:50:36.885Z,3.90
2017-10-12T01:53:03.506Z,4.07
2017-10-12T01:55:30.094Z,3.80
2017-10-12T01:57:56.675Z,4.00
2017-10-12T02:00:23.667Z,4.30
2017-10-12T02:02:50.247Z,4.30
2017-10-12T02:05:16.826Z,4.10
2017-10-12T02:07:43.426Z,3.50
2017-10-12T02:10:10.006Z,3.80
2017-10-12T02:12:36.589Z,3.53
2017-10-12T02:15:03.208Z,4.30
2017-10-12T02:17:29.786Z,3.67
2017-10-12T02:19:56.362Z,3.90
2017-10-12T02:22:23.047Z,3.90
2017-10-12T02:24:49.641Z,3.80
2017-10-12T02:27:16.214Z,3.87
2017-10-12T02:29:42.805Z,4.10
2017-10-12T02:32:09.401Z,4.03
2017-10-12T02:34:35.981Z,4.10
2017-10-12T02:37:02.599Z,3.50
2017-10-12T02:39:29.183Z,4.20
2017-10-12T02:41:55.757Z,3.50
2017-10-12T02:44:22.446Z,4.10
2017-10-12T02:46:49.030Z,3.70
2017-10-12T02:49:15.638Z,3.90
2017-10-12T02:51:42.248Z,4.00
2017-10-12T02:54:08.853Z,3.77
2017-10-12T02:56:35.447Z,4.23
2017-10-12T02:59:02.018Z,3.90
2017-10-12T03:01:28.593Z,3.70
2017-10-12T03:03:55.174Z,3.93
2017-10-12T03:06:21.766Z,3.67
2017-10-12T03:08:48.341Z,3.70
2017-10-12T03:11:14.926Z,3.83
2017-10-12T03:13:41.866Z,3.80
2017-10-12T03:16:08.430Z,3.80
2017-10-12T03:18:35.006Z,3.60
2017-10-12T03:21:01.599Z,4.10
2017-10-12T03:23:28.178Z,3.60
2017-10-12T03:25:54.754Z,3.80
2017-10-12T03:28:21.445Z,3.73
2017-10-12T03:30:48.060Z,3.93
2017-10-12T03:33:14.649Z,3.33
2017-10-12T03:35:41.241Z,3.33
2017-10-12T03:38:07.817Z,2.70
2017-10-12T03:40:34.395Z,3.10
2017-10-12T03:43:00.990Z,3.13
2017-10-12T03:45:27.570Z,2.93
2017-10-12T03:47:54.157Z,3.10
2017-10-12T03:50:20.773Z,3.07
2017-10-12T03:52:47.334Z,2.97
2017-10-12T03:55:13.918Z,2.60
2017-10-12T03:57:40.503Z,3.20
2017-10-12T04:00:07.082Z,2.77
2017-10-12T04:02:33.661Z,3.20
2017-10-12T04:05:00.254Z,3.20
2017-10-12T04:07:26.908Z,2.90
2017-10-12T04:09:53.490Z,3.17
2017-10-12T04:12:20.078Z,3.53
2017-10-12T04:14:46.662Z,3.13
2017-10-12T04:17:13.238Z,3.67
2017-10-12T04:19:39.922Z,3.63
2017-10-12T04:22:06.502Z,3.30
2017-10-12T04:24:33.074Z,3.20
2017-10-12T04:26:59.765Z,3.30
2017-10-12T04:29:26.350Z,3.20
2017-10-12T04:31:52.930Z,3.83
2017-10-12T04:34:19.550Z,3.90
2017-10-12T04:36:46.133Z,3.63
2017-10-12T04:39:12.713Z,4.10
2017-10-12T04:41:39.362Z,3.70
2017-10-12T04:44:06.010Z,3.70
2017-10-12T04:46:32.589Z,4.20
2017-10-12T04:48:59.201Z,4.17
2017-10-12T04:51:25.777Z,3.70
2017-10-12T04:53:52.358Z,3.80
2017-10-12T04:56:18.945Z,3.57
2017-10-12T04:58:45.526Z,4.10
2017-10-12T05:01:12.106Z,3.80
2017-10-12T05:03:38.793Z,4.10
2017-10-12T05:06:05.382Z,4.73
2017-10-12T05:08:31.954Z,4.00
2017-10-12T05:10:58.546Z,4.37
2017-10-12T05:13:25.126Z,4.70
2017-10-12T05:15:51.706Z,4.60
2017-10-12T05:18:18.422Z,3.77
2017-10-12T05:20:45.005Z,5.10
2017-10-12T05:23:11.590Z,4.50
2017-10-12T05:25:38.174Z,4.20
2017-10-12T05:28:04.777Z,4.00
2017-10-12T05:30:31.350Z,4.20
2017-10-12T05:32:57.966Z,4.40
2017-10-12T05:35:24.569Z,4.43
2017-10-12T05:37:51.137Z,4.07
2017-10-12T05:40:17.726Z,4.27
2017-10-12T05:42:44.302Z,4.33
2017-10-12T05:45:10.886Z,3.60
2017-10-12T05:47:37.478Z,3.87
2017-10-12T05:50:04.081Z,4.37
2017-10-12T05:52:30.650Z,4.00
2017-10-12T05:54:57.277Z,4.10
2017-10-12T05:57:23.845Z,4.07
2017-10-12T05:59:50.422Z,4.37
2017-10-12T06:02:17.038Z,3.60
2017-10-12T06:04:43.618Z,4.17
2017-10-12T06:07:10.198Z,4.77
2017-10-12T06:09:36.798Z,5.40
2017-10-12T06:12:05.417Z,4.23
2017-10-12T06:14:32.057Z,4.43
2017-10-12T06:16:58.750Z,4.80
2017-10-12T06:19:25.338Z,19.40
2017-10-12T06:21:51.931Z,24.10
2017-10-12T06:24:18.534Z,4.70
2017-10-12T06:26:45.119Z,4.90
2017-10-12T06:29:11.692Z,4.30
2017-10-12T06:31:38.394Z,4.67
2017-10-12T06:34:04.974Z,4.00
2017-10-12T06:36:31.553Z,4.60
2017-10-12T06:38:58.149Z,5.07
2017-10-12T06:41:24.734Z,7.00
2017-10-12T06:43:51.314Z,7.13
2017-10-12T06:46:17.925Z,6.53
2017-10-12T06:48:44.507Z,4.97
2017-10-12T06:51:11.099Z,5.53
2017-10-12T06:53:37.705Z,4.50
2017-10-12T06:56:04.289Z,4.70
2017-10-12T06:58:30.861Z,4.23
2017-10-12T07:00:57.554Z,4.47
2017-10-12T07:03:24.140Z,4.33
2017-10-12T07:05:50.717Z,4.27
2017-10-12T07:08:17.310Z,3.90
2017-10-12T07:10:43.887Z,4.33
2017-10-12T07:13:10.464Z,3.90
2017-10-12T07:15:37.150Z,4.40
2017-10-12T07:18:03.729Z,4.23
2017-10-12T07:20:30.904Z,4.40
2017-10-12T07:22:57.489Z,5.80
2017-10-12T07:25:24.189Z,4.17
2017-10-12T07:27:50.801Z,4.30
2017-10-12T07:30:17.389Z,5.03
2017-10-12T07:32:43.978Z,5.43
2017-10-12T07:35:10.561Z,4.40
2017-10-12T07:37:37.534Z,4.23
2017-10-12T07:40:07.286Z,4.00
2017-10-12T07:42:37.211Z,5.67
2017-10-12T07:45:09.814Z,3.80
2017-10-12T07:47:36.508Z,4.60
2017-10-12T07:50:03.082Z,3.23
2017-10-12T07:52:29.681Z,4.87
2017-10-12T07:54:56.293Z,4.37
2017-10-12T07:57:22.877Z,3.37
2017-10-12T07:59:57.784Z,3.27
2017-10-12T08:02:24.353Z,3.93
2017-10-12T08:04:51.001Z,3.70
2017-10-12T08:07:17.718Z,4.53
2017-10-12T08:09:54.116Z,4.63
2017-10-12T08:12:20.890Z,5.60
2017-10-12T08:14:47.979Z,4.47
2017-10-12T08:17:14.553Z,3.90
2017-10-12T08:19:44.929Z,4.20
2017-10-12T08:22:15.177Z,3.90
2017-10-12T08:24:41.765Z,3.67
2017-10-12T08:27:08.971Z,3.60
2017-10-12T08:29:35.626Z,3.20
2017-10-12T08:32:02.213Z,3.10
2017-10-12T08:34:28.810Z,9.60
2017-10-12T08:36:55.401Z,31.17
2017-10-12T08:39:22.036Z,33.07
2017-10-12T08:41:48.946Z,16.13
2017-10-12T08:44:19.026Z,3.97
2017-10-12T08:46:45.638Z,4.77
2017-10-12T08:49:18.301Z,3.23
2017-10-12T08:51:44.948Z,3.83
2017-10-12T08:54:18.787Z,3.20
2017-10-12T08:56:45.381Z,3.60
2017-10-12T08:59:11.961Z,2.80
2017-10-12T09:01:44.525Z,3.63
2017-10-12T09:04:11.146Z,3.20
2017-10-12T09:06:44.353Z,3.43
2017-10-12T09:09:10.947Z,4.03
2017-10-12T09:14:10.750Z,3.67
2017-10-12T09:16:37.337Z,6.50
2017-10-12T09:19:04.049Z,7.60
2017-10-12T09:21:30.629Z,6.33
2017-10-12T09:23:57.245Z,5.47
2017-10-12T09:26:29.621Z,9.77
2017-10-12T09:28:56.202Z,3.40
2017-10-12T09:31:22.789Z,2.97
2017-10-12T09:33:49.367Z,2.80
2017-10-12T09:36:15.945Z,2.63
2017-10-12T09:38:42.534Z,2.63
2017-10-12T09:41:09.112Z,2.50
2017-10-12T09:43:35.697Z,2.47
2017-10-12T09:46:02.274Z,2.40
2017-10-12T09:48:28.904Z,3.17
2017-10-12T09:50:55.474Z,3.10
2017-10-12T09:53:22.058Z,2.63
2017-10-12T09:55:48.666Z,9.60
2017-10-12T09:58:15.240Z,7.53
2017-10-12T10:00:41.819Z,3.30
2017-10-12T10:05:52.481Z,2.53
2017-10-12T10:08:19.046Z,2.50
2017-10-12T10:10:45.615Z,2.37
2017-10-12T10:13:12.182Z,2.70
2017-10-12T10:15:38.752Z,5.40
2017-10-12T10:18:12.759Z,3.77
2017-10-12T10:20:39.319Z,2.47
2017-10-12T10:23:05.895Z,2.63
2017-10-12T10:25:32.470Z,3.37
2017-10-12T10:27:59.036Z,2.67
2017-10-12T10:30:25.607Z,3.00
2017-10-12T10:32:52.175Z,2.60
2017-10-12T10:35:18.747Z,3.70
2017-10-12T10:37:45.323Z,2.60
2017-10-12T10:40:11.905Z,2.70
2017-10-12T10:42:38.478Z,3.20
2017-10-12T10:45:05.061Z,5.90
2017-10-12T10:47:31.610Z,2.60
2017-10-12T10:49:58.186Z,2.90
2017-10-12T10:52:24.751Z,1.93
2017-10-12T10:54:51.338Z,2.40
2017-10-12T10:57:17.900Z,2.20
2017-10-12T10:59:44.471Z,1.90
2017-10-12T11:02:11.054Z,2.93
2017-10-12T11:04:37.615Z,2.00
2017-10-12T11:07:04.195Z,1.97
2017-10-12T11:09:30.760Z,2.70
2017-10-12T11:11:57.328Z,3.57
2017-10-12T11:14:23.898Z,2.17
2017-10-12T11:16:50.467Z,2.27
2017-10-12T11:19:17.036Z,1.93
2017-10-12T11:21:43.607Z,2.10
2017-10-12T11:24:10.170Z,1.87
2017-10-12T11:26:36.739Z,1.93
2017-10-12T11:29:03.317Z,2.20
2017-10-12T11:31:29.899Z,2.50
2017-10-12T11:33:56.475Z,2.60
2017-10-12T11:36:23.048Z,2.30
2017-10-12T11:38:49.615Z,1.90
2017-10-12T11:41:16.203Z,1.93
2017-10-12T11:43:42.780Z,1.90
2017-10-12T11:46:09.343Z,1.70
2017-10-12T11:48:35.915Z,2.20
2017-10-12T11:51:02.490Z,2.10
2017-10-12T11:53:29.051Z,1.97
2017-10-12T11:55:55.620Z,1.67
2017-10-12T11:58:22.183Z,2.33
2017-10-12T12:00:48.766Z,1.87
2017-10-12T12:03:15.335Z,1.60
2017-10-12T12:05:41.902Z,1.70
2017-10-12T12:08:08.475Z,3.87
2017-10-12T12:10:35.047Z,1.90
2017-10-12T12:13:01.627Z,4.30
2017-10-12T12:15:28.972Z,3.20
2017-10-12T12:17:55.528Z,1.40
2017-10-12T12:20:22.102Z,1.73
2017-10-12T12:22:48.668Z,2.00
2017-10-12T12:25:15.247Z,2.07
2017-10-12T12:27:41.819Z,2.30
2017-10-12T12:30:08.387Z,5.00
2017-10-12T12:32:34.959Z,2.63
2017-10-12T12:35:01.561Z,2.40
2017-10-12T12:37:28.132Z,1.83
2017-10-12T12:39:54.703Z,1.70
2017-10-12T12:42:21.302Z,2.30
2017-10-12T12:44:48.580Z,1.70
2017-10-12T12:47:15.146Z,2.60
2017-10-12T12:49:41.715Z,6.43
2017-10-12T12:52:08.319Z,3.27
2017-10-12T12:54:34.880Z,3.50
2017-10-12T12:57:02.272Z,2.77
2017-10-12T12:59:28.895Z,3.10
2017-10-12T13:01:55.463Z,2.90
2017-10-12T13:04:22.035Z,3.60
2017-10-12T13:06:48.622Z,5.33
2017-10-12T13:09:15.284Z,3.00
2017-10-12T13:11:41.839Z,3.60
2017-10-12T13:14:08.423Z,4.27
2017-10-12T13:16:34.991Z,3.47
2017-10-12T13:19:01.560Z,3.20
2017-10-12T13:21:28.131Z,2.03
2017-10-12T13:23:54.707Z,17.10
2017-10-12T13:26:21.294Z,2.63
2017-10-12T13:28:47.912Z,10.57
2017-10-12T13:31:14.483Z,13.43
2017-10-12T13:33:41.062Z,2.40
2017-10-12T13:36:07.627Z,6.13
2017-10-12T13:38:34.212Z,6.30
2017-10-12T13:41:00.787Z,13.60
2017-10-12T13:43:27.360Z,2.80
2017-10-12T13:45:53.935Z,2.23
2017-10-12T13:48:20.502Z,1.90
2017-10-12T13:50:47.074Z,1.80
2017-10-12T13:53:13.637Z,2.00
2017-10-12T13:55:40.310Z,1.90
2017-10-12T13:58:06.857Z,1.70
2017-10-12T14:00:33.435Z,1.60
2017-10-12T14:03:11.652Z,1.70
2017-10-12T14:05:38.253Z,2.30
2017-10-12T14:08:04.819Z,2.10
2017-10-12T14:10:31.448Z,2.03
2017-10-12T14:12:58.129Z,2.20
2017-10-12T14:15:24.692Z,1.77
2017-10-12T14:17:51.336Z,1.73
2017-10-12T14:20:17.879Z,2.00
2017-10-12T14:22:44.456Z,2.33
2017-10-12T14:25:11.038Z,1.80
2017-10-12T14:27:37.599Z,2.00
2017-10-12T14:30:04.199Z,1.80
2017-10-12T14:32:30.784Z,1.87
2017-10-12T14:34:57.351Z,1.90
2017-10-12T14:37:23.956Z,1.83
2017-10-12T14:39:50.545Z,2.40
2017-10-12T14:42:17.106Z,2.07
2017-10-12T14:44:43.675Z,1.97
2017-10-12T14:47:10.279Z,2.17
2017-10-12T14:49:36.843Z,1.80
2017-10-12T14:52:03.448Z,1.90
2017-10-12T14:54:30.015Z,2.00
2017-10-12T14:56:56.626Z,2.07
2017-10-12T14:59:23.194Z,2.13
2017-10-12T15:01:49.752Z,2.00
2017-10-12T15:04:16.335Z,1.70
2017-10-12T15:06:42.918Z,1.97
2017-10-12T15:09:09.507Z,2.27
2017-10-12T15:11:36.074Z,1.67
2017-10-12T15:14:02.660Z,1.93
2017-10-12T15:16:29.256Z,2.23
2017-10-12T15:18:55.818Z,2.00
2017-10-12T15:21:22.402Z,1.80
2017-10-12T15:23:48.963Z,1.97
2017-10-12T15:26:15.527Z,1.70
2017-10-12T15:28:42.127Z,2.17
2017-10-12T15:31:08.691Z,2.43
2017-10-12T15:33:35.300Z,3.03
2017-10-12T15:36:01.922Z,2.60
2017-10-12T15:38:28.496Z,5.40
2017-10-12T15:40:55.081Z,4.20
2017-10-12T15:43:21.698Z,2.70
2017-10-12T15:45:48.308Z,2.80
2017-10-12T15:48:14.875Z,2.43
2017-10-12T15:50:41.469Z,2.47
2017-10-12T15:53:08.145Z,2.10
2017-10-12T15:55:34.707Z,2.00
2017-10-12T15:58:01.313Z,2.10
2017-10-12T16:00:27.947Z,1.97
2017-10-12T16:02:54.522Z,2.13
2017-10-12T16:05:21.106Z,2.20
2017-10-12T16:07:47.668Z,2.10
2017-10-12T16:10:14.243Z,2.20
2017-10-12T16:12:40.807Z,1.90
2017-10-12T16:15:07.384Z,2.10
2017-10-12T16:17:33.964Z,1.90
2017-10-12T16:20:00.534Z,2.50
2017-10-12T16:24:53.675Z,1.97
2017-10-12T16:27:20.251Z,2.30
2017-10-12T16:29:46.819Z,2.40
2017-10-12T16:32:13.391Z,2.60
2017-10-12T16:34:39.964Z,2.17
2017-10-12T16:37:06.536Z,2.07
2017-10-12T16:39:33.114Z,2.43
2017-10-12T16:42:07.723Z,2.30
2017-10-12T16:44:40.695Z,2.07
2017-10-12T16:47:07.262Z,2.33
2017-10-12T16:49:40.276Z,1.90
2017-10-12T16:52:08.395Z,2.33
2017-10-12T16:54:34.963Z,2.63
2017-10-12T16:57:01.539Z,2.30
2017-10-12T16:59:28.108Z,2.80
2017-10-12T17:01:54.683Z,2.90
2017-10-12T17:04:21.297Z,2.73
2017-10-12T17:06:47.868Z,1.93
2017-10-12T17:09:14.444Z,2.60
2017-10-12T17:11:41.012Z,2.20
2017-10-12T17:14:07.679Z,2.10
2017-10-12T17:16:34.247Z,2.50
2017-10-12T17:19:00.807Z,2.33
2017-10-12T17:21:27.387Z,2.73
2017-10-12T17:23:53.965Z,2.87
2017-10-12T17:26:20.548Z,2.20
2017-10-12T17:28:47.143Z,2.20
2017-10-12T17:31:13.714Z,2.57
2017-10-12T17:33:40.291Z,2.60
2017-10-12T17:36:06.851Z,2.43
2017-10-12T17:38:33.428Z,2.57
2017-10-12T17:41:00.011Z,2.27
2017-10-12T17:43:26.583Z,2.27
2017-10-12T17:45:53.147Z,2.43
2017-10-12T17:48:19.723Z,2.37
2017-10-12T17:50:46.300Z,2.40
2017-10-12T17:53:12.869Z,2.30
2017-10-12T17:55:39.444Z,2.23
2017-10-12T17:58:06.009Z,2.57
2017-10-12T18:00:32.582Z,2.20
2017-10-12T18:02:59.156Z,2.10
2017-10-12T18:05:25.724Z,2.30
2017-10-12T18:07:52.308Z,2.40
2017-10-12T18:10:18.881Z,2.03
2017-10-12T18:12:45.467Z,2.47
2017-10-12T18:15:12.030Z,3.10
2017-10-12T18:17:38.595Z,2.80
2017-10-12T18:20:05.179Z,3.33
2017-10-12T18:22:31.731Z,2.70
2017-10-12T18:24:58.300Z,2.60
2017-10-12T18:27:24.875Z,3.50
2017-10-12T18:29:51.440Z,2.77
2017-10-12T18:32:18.049Z,3.00
2017-10-12T18:34:44.627Z,2.73
2017-10-12T18:37:11.184Z,2.57
2017-10-12T18:39:37.752Z,2.50
2017-10-12T18:42:04.354Z,2.70
2017-10-12T18:44:30.927Z,2.87
2017-10-12T18:46:57.528Z,2.53
2017-10-12T18:49:24.103Z,2.47
2017-10-12T18:51:50.689Z,2.70
2017-10-12T18:54:17.378Z,2.97
2017-10-12T18:56:43.929Z,3.00
2017-10-12T18:59:10.496Z,3.43
2017-10-12T19:01:37.087Z,3.00
2017-10-12T19:04:03.648Z,3.07
2017-10-12T19:06:30.218Z,3.10
2017-10-12T19:08:56.800Z,2.90
2017-10-12T19:11:23.368Z,2.73
2017-10-12T19:13:49.935Z,3.10
2017-10-12T19:16:26.977Z,2.80
2017-10-12T19:18:53.539Z,2.90
2017-10-12T19:21:20.118Z,2.80
2017-10-12T19:23:46.674Z,3.20
2017-10-12T19:26:13.256Z,3.23
2017-10-12T19:28:39.832Z,3.60
2017-10-12T19:31:06.399Z,3.60
2017-10-12T19:33:32.978Z,3.30
2017-10-12T19:35:59.571Z,3.23
2017-10-12T19:38:26.145Z,3.33
2017-10-12T19:41:22.515Z,3.73
2017-10-12T19:43:19.315Z,2.93
2017-10-12T19:45:45.872Z,2.93
2017-10-12T19:48:12.462Z,3.30
2017-10-12T19:50:39.020Z,3.20
2017-10-12T19:53:05.582Z,2.93
2017-10-12T19:55:32.161Z,2.90
2017-10-12T19:57:58.766Z,3.30
2017-10-12T20:00:25.350Z,3.30
2017-10-12T20:02:51.924Z,2.97
2017-10-12T20:05:18.501Z,3.80
2017-10-12T20:07:45.068Z,3.63
2017-10-12T20:10:11.736Z,3.57
2017-10-12T20:12:38.297Z,4.00
2017-10-12T20:15:04.855Z,4.00
2017-10-12T20:17:31.443Z,4.00
2017-10-12T20:19:58.016Z,3.80
2017-10-12T20:22:24.587Z,3.30
2017-10-12T20:24:51.407Z,3.40
2017-10-12T20:27:17.972Z,3.67
2017-10-12T20:29:44.540Z,3.57
2017-10-12T20:32:11.116Z,2.90
2017-10-12T20:34:37.705Z,3.30
2017-10-12T20:37:04.269Z,3.30
2017-10-12T20:39:30.850Z,3.60
2017-10-12T20:44:23.991Z,3.70
2017-10-12T20:49:23.087Z,4.03
2017-10-12T20:51:49.660Z,4.10
2017-10-12T20:54:16.237Z,3.80
2017-10-12T20:56:42.814Z,3.53
2017-10-12T20:59:15.303Z,3.50
2017-10-12T21:01:41.868Z,3.73
2017-10-12T21:04:14.353Z,3.57
2017-10-12T21:06:40.948Z,4.10
2017-10-12T21:09:07.530Z,3.57
2017-10-12T21:11:34.124Z,3.67
2017-10-12T21:14:00.691Z,3.60
2017-10-12T21:16:27.263Z,3.90
2017-10-12T21:18:53.837Z,3.80
2017-10-12T21:21:20.411Z,4.07
2017-10-12T21:23:47.018Z,4.63
2017-10-12T21:26:13.578Z,3.63
2017-10-12T21:28:40.161Z,4.23
2017-10-12T21:31:06.727Z,4.60
2017-10-12T21:33:33.339Z,4.57
2017-10-12T21:35:59.930Z,4.60
2017-10-12T21:38:26.492Z,4.70
2017-10-12T21:41:02.763Z,4.10
2017-10-12T21:43:29.355Z,4.53
2017-10-12T21:45:55.924Z,4.80
2017-10-12T21:48:22.495Z,4.10
2017-10-12T21:50:49.066Z,4.20
2017-10-12T21:53:15.651Z,4.40
2017-10-12T21:55:42.211Z,4.30
2017-10-12T21:58:08.788Z,4.43
2017-10-12T22:00:35.399Z,4.23
2017-10-12T22:03:01.964Z,3.90
2017-10-12T22:05:28.539Z,4.60
2017-10-12T22:07:55.113Z,4.73
2017-10-12T22:10:21.685Z,4.60
2017-10-12T22:12:48.251Z,4.13
2017-10-12T22:15:14.822Z,5.10
2017-10-12T22:17:41.397Z,4.53
2017-10-12T22:20:07.972Z,4.70
2017-10-12T22:22:34.555Z,4.30
2017-10-12T22:25:01.118Z,5.33
2017-10-12T22:27:27.703Z,4.63
2017-10-12T22:29:54.270Z,4.30
2017-10-12T22:32:20.839Z,4.20
2017-10-12T22:34:47.411Z,4.90
2017-10-12T22:37:13.982Z,4.70
2017-10-12T22:39:40.555Z,5.07
2017-10-12T22:42:07.122Z,5.00
2017-10-12T22:44:33.697Z,4.23
2017-10-12T22:47:00.263Z,4.80
2017-10-12T22:49:26.837Z,5.23
2017-10-12T22:51:53.415Z,4.67
2017-10-12T22:54:19.982Z,5.03
2017-10-12T22:56:46.559Z,5.27
2017-10-12T22:59:13.141Z,4.50
2017-10-12T23:01:39.708Z,4.37
2017-10-12T23:04:06.308Z,5.50
2017-10-12T23:06:32.875Z,5.40
2017-10-12T23:08:59.452Z,5.73
2017-10-12T23:11:26.020Z,5.00
2017-10-12T23:13:52.593Z,4.83
2017-10-12T23:16:19.167Z,5.20
2017-10-12T23:18:45.737Z,4.57
2017-10-12T23:21:12.310Z,4.60
2017-10-12T23:23:38.872Z,4.97
2017-10-12T23:26:05.442Z,5.73
2017-10-12T23:28:32.021Z,5.43
2017-10-12T23:30:58.586Z,5.00
2017-10-12T23:33:25.191Z,5.50
2017-10-12T23:35:51.763Z,4.97
2017-10-12T23:38:18.342Z,4.57
2017-10-12T23:40:44.913Z,5.07
2017-10-12T23:43:11.485Z,4.43
2017-10-12T23:45:38.063Z,4.80
2017-10-12T23:48:04.629Z,4.97
2017-10-12T23:50:31.208Z,5.30
2017-10-12T23:52:57.780Z,5.20
2017-10-12T23:55:24.368Z,4.50
2017-10-12T23:57:50.935Z,4.60
